Hauptseite
METAR-TAF:

METAR-TAF

Flughäfen :

Dschidda, Saudi-Arabien

Internationaler König-Abd-al-Aziz-Flughafen

Breite: 21-42N, Länge: 039-11E, Höhe: 15 m

Beobachtung

Neuester Wetterbericht von vor 53 Minuten, um 23:00 UTC
Wind 4 kt aus Nord
Temperatur 22°C
Luftfeuchtigkeit 73%
Luftdruck 1013 hPa
Sichtweite 10 km oder mehr
keine Wolken unter 1500 m und keine Kumulonimbus oder Gewitterwolken

METAR: OEJN 172300Z 36004KT CAVOK 22/17 Q1013 NOSIG

Zeit: 02:53 (23:53 UTC)

Prognose

Neuester Wetterbericht von vor 53 Minuten, um 23:00 UTC
Gültige Prognose vom 18 um 00 UTC bis 19 um 06 UTC
Wind 3 kt aus unterschiedlichen Richtungen
Sichtweite: 7000 m
Übergehend zu
vom 18 um 08 UTC bis 18 um 10 UTC
Wind 6 kt aus Nordwest, Böen bis zu 16 kt

TAF: OEJN 172300Z 1800/1906 VRB03KT 7000 NSC BECMG 1808/1810 32006G16KT

Wetterbeobachtungen und Prognosen von mehr als 4000 Flughäfen (METAR und TAF Bericht).

Die verfügbaren Stationen werden durch gelbe und rote Markierungen auf der Karte dargestellt.

Führen Sie die Maus auf sie, um den Namen der Station zu sehen.

Darauf klicken, um die Beobachtung von Wetterbeobachtungen und Prognosen zu sehen.

Um die Karte zu ändern : klicken Sie auf den grünen Tasten mit einem schwarzen Kreuz Zum Vergrößern, auf den grünen Button mit einem Gedankenstrich zu verkleinern, oder auf die grünen Pfeile für benachbarte Karten.


METAR-TAF: